TAF KPIT
AMD KPIT 080332Z 0804/0906 03003KT P6SM BKN070 TEMPO 0810/0814 -SN BKN015 FM081600 21005KT P6SM BKN025 FM082100 27010KT P6SM BKN050=
METAR KPIT
WC KPIT
WS KPIT
WV KPIT